Time;durP1;ratioP1;P1;durP2;ratioP2;P2;SDS_P1;SDS_P2;PMS_P1;PMS_P2;Temp;Humidity;BMP_temperature;BMP_pressure;BME280_temperature;BME280_humidity;BME280_pressure;Samples;Min_cycle;Max_cycle;Signal;HPM_P1;HPM_P2
2024/01/02 00:06:02;;;;;;;23.27;12.63;;;;;;;11.67;100.00;99229.22;31504322;28;20075;-81
2024/01/02 00:21:05;;;;;;;35.07;14.60;;;;;;;12.02;100.00;99256.28;31498162;28;20060;-81
2024/01/02 00:36:13;;;;;;;34.90;15.60;;;;;;;12.01;100.00;99205.81;31485612;28;20079;-81
2024/01/02 00:51:16;;;;;;;41.17;15.43;;;;;;;12.30;100.00;99187.84;31476798;28;20496;-81
2024/01/02 01:06:18;;;;;;;34.87;16.03;;;;;;;12.71;100.00;99225.88;31496745;28;20052;-81
2024/01/02 01:21:20;;;;;;;37.50;16.90;;;;;;;12.80;100.00;99244.91;31494435;28;20056;-81
2024/01/02 01:36:22;;;;;;;39.80;16.07;;;;;;;12.36;100.00;99211.75;31471883;28;20143;-80
2024/01/02 01:51:24;;;;;;;32.60;14.90;;;;;;;12.41;100.00;99183.94;31488187;28;20076;-80
2024/01/02 02:06:27;;;;;;;30.60;15.03;;;;;;;12.42;100.00;99178.06;31482942;28;20049;-80
2024/01/02 02:21:31;;;;;;;35.90;16.17;;;;;;;12.37;100.00;99165.03;31485590;28;20057;-80
2024/01/02 02:36:33;;;;;;;37.23;15.47;;;;;;;12.39;100.00;99148.25;31497001;28;20045;-80
2024/01/02 02:51:36;;;;;;;32.73;15.87;;;;;;;12.34;100.00;99148.88;31483992;28;20064;-80
2024/01/02 03:06:38;;;;;;;36.17;15.90;;;;;;;12.22;100.00;99158.69;31486770;28;20094;-80
2024/01/02 03:21:40;;;;;;;39.13;16.60;;;;;;;12.10;100.00;99194.94;31509803;28;20080;-80
2024/01/02 03:36:42;;;;;;;41.00;19.20;;;;;;;13.34;100.00;99232.50;31500616;28;20049;-84
2024/01/02 03:51:44;;;;;;;37.97;17.17;;;;;;;13.14;100.00;99233.72;31508854;28;20072;-84
2024/01/02 04:06:47;;;;;;;32.17;16.83;;;;;;;12.84;100.00;99272.78;31503068;28;20480;-84
2024/01/02 04:21:49;;;;;;;27.17;13.47;;;;;;;12.57;100.00;99282.41;31496759;28;20057;-84
2024/01/02 04:36:51;;;;;;;28.33;13.47;;;;;;;12.48;100.00;99270.78;31497050;28;20458;-83
2024/01/02 04:51:53;;;;;;;28.90;13.47;;;;;;;12.47;100.00;99326.41;31502502;28;20551;-83
2024/01/02 05:06:56;;;;;;;32.20;14.20;;;;;;;12.31;100.00;99341.00;31492786;28;20542;-83
2024/01/02 05:21:58;;;;;;;29.53;13.97;;;;;;;10.96;100.00;99335.00;31497203;28;20060;-80
2024/01/02 05:37:00;;;;;;;26.33;12.03;;;;;;;10.76;100.00;99345.38;31491478;28;20056;-82
2024/01/02 05:52:02;;;;;;;30.33;12.43;;;;;;;10.89;100.00;99365.09;31494775;28;20458;-80
2024/01/02 06:07:04;;;;;;;23.17;11.40;;;;;;;10.47;100.00;99400.53;31502694;28;20056;-82
2024/01/02 06:22:06;;;;;;;25.67;11.40;;;;;;;10.45;100.00;99394.78;31497138;28;20543;-82
2024/01/02 06:37:08;;;;;;;23.50;11.13;;;;;;;10.58;100.00;99417.25;31474160;28;20132;-83
2024/01/02 06:52:10;;;;;;;17.27;9.27;;;;;;;10.83;100.00;99426.59;31507042;28;20469;-82
2024/01/02 07:07:12;;;;;;;28.57;10.27;;;;;;;10.73;100.00;99446.66;31504292;28;20423;-84
2024/01/02 07:22:14;;;;;;;20.87;9.93;;;;;;;11.20;100.00;99474.66;31504843;28;20051;-83
2024/01/02 07:37:17;;;;;;;20.13;8.80;;;;;;;10.44;100.00;99471.94;31498200;28;20101;-80
2024/01/02 07:52:19;;;;;;;16.83;7.90;;;;;;;10.43;100.00;99489.41;31536835;28;20465;-83
2024/01/02 08:07:21;;;;;;;13.03;7.17;;;;;;;10.84;100.00;99463.41;31493953;28;20052;-82
2024/01/02 08:22:23;;;;;;;15.23;7.03;;;;;;;10.82;100.00;99492.94;31539401;28;20044;-84
2024/01/02 08:37:25;;;;;;;12.10;5.73;;;;;;;11.02;100.00;99473.72;31505690;28;20127;-81
2024/01/02 08:52:27;;;;;;;14.10;6.43;;;;;;;10.77;100.00;99474.47;31499720;28;20043;-75
2024/01/02 09:07:31;;;;;;;11.00;5.97;;;;;;;11.98;100.00;99475.97;31485349;28;20065;-79
2024/01/02 09:22:33;;;;;;;11.80;4.80;;;;;;;12.39;100.00;99483.78;31491424;28;20444;-82
2024/01/02 09:37:35;;;;;;;7.37;4.67;;;;;;;12.44;100.00;99480.50;31493000;28;20056;-81
2024/01/02 09:53:04;;;;;;;10.20;4.53;;;;;;;12.87;100.00;99452.41;31503489;28;20091;-87
2024/01/02 10:08:36;;;;;;;11.27;5.00;;;;;;;11.56;100.00;99452.50;31503027;28;20067;-88
2024/01/02 10:24:06;;;;;;;11.23;4.33;;;;;;;12.59;100.00;99446.09;31486233;28;20040;-81
2024/01/02 10:39:17;;;;;;;7.73;4.30;;;;;;;12.32;100.00;99445.94;31512032;28;20060;-81
2024/01/02 10:54:47;;;;;;;10.33;4.27;;;;;;;11.37;100.00;99441.91;31488660;28;20071;-83
2024/01/02 11:10:25;;;;;;;10.03;4.80;;;;;;;11.56;100.00;99424.56;31474158;28;20059;-80
2024/01/02 11:25:31;;;;;;;10.37;5.67;;;;;;;11.39;100.00;99437.53;31479569;28;20075;-78
2024/01/02 11:41:28;;;;;;;8.90;4.27;;;;;;;11.42;100.00;99444.06;31497289;28;20083;-79
2024/01/02 11:56:35;;;;;;;10.83;5.10;;;;;;;12.70;100.00;99425.88;31482089;28;20048;-79
2024/01/02 12:11:46;;;;;;;8.67;4.40;;;;;;;12.75;100.00;99428.00;31492735;28;20066;-75
2024/01/02 12:26:50;;;;;;;8.80;3.47;;;;;;;13.23;100.00;99440.09;31496889;28;20137;-84
2024/01/02 12:41:55;;;;;;;6.50;3.20;;;;;;;11.88;100.00;99439.78;31495158;28;20052;-78
2024/01/02 12:57:04;;;;;;;10.37;3.30;;;;;;;11.48;100.00;99431.44;31502427;28;20052;-86
2024/01/02 13:12:13;;;;;;;9.63;3.50;;;;;;;12.41;100.00;99429.69;31486961;28;20045;-86
2024/01/02 13:27:22;;;;;;;11.27;4.37;;;;;;;11.38;100.00;99418.97;31514037;28;20143;-83
2024/01/02 13:42:27;;;;;;;7.37;3.93;;;;;;;10.89;100.00;99420.16;31511921;28;20067;-87
2024/01/02 13:57:36;;;;;;;10.40;4.10;;;;;;;11.31;100.00;99413.78;31481405;28;20076;-90
2024/01/02 14:12:40;;;;;;;8.07;3.83;;;;;;;10.41;100.00;99425.91;31492428;28;20109;-77
2024/01/02 14:27:56;;;;;;;9.53;3.67;;;;;;;10.38;100.00;99422.13;31502258;28;20052;-88
2024/01/02 14:43:01;;;;;;;;;;;;;;;10.47;100.00;99424.94;31482459;28;20052;-82
2024/01/02 14:58:09;;;;;;;4.97;2.70;;;;;;;11.62;100.00;99411.91;31473989;28;19920;-83
2024/01/02 15:13:22;;;;;;;6.33;3.03;;;;;;;11.80;100.00;99431.13;31506973;28;20714;-86
2024/01/02 15:28:35;;;;;;;7.93;3.03;;;;;;;10.59;100.00;99426.94;31522141;28;20054;-86
2024/01/02 15:43:55;;;;;;;6.03;2.63;;;;;;;10.62;100.00;99408.25;31494534;28;20064;-90
2024/01/02 15:59:25;;;;;;;9.03;3.70;;;;;;;10.53;100.00;99417.78;31510316;28;20488;-80
2024/01/02 16:14:55;;;;;;;13.80;3.42;;;;;;;11.23;100.00;99408.59;31514748;28;20049;-93
2024/01/02 16:30:23;;;;;;;6.30;3.60;;;;;;;10.19;100.00;99406.78;31527254;28;20074;-87
2024/01/02 16:45:33;;;;;;;9.40;4.00;;;;;;;11.09;100.00;99386.56;31498673;28;20125;-77
2024/01/02 17:00:35;;;;;;;4.30;2.40;;;;;;;10.99;100.00;99398.53;31483604;28;20056;-80
2024/01/02 17:15:38;;;;;;;7.07;3.00;;;;;;;10.86;100.00;99385.00;31506950;28;20595;-78
2024/01/02 17:30:40;;;;;;;5.90;2.67;;;;;;;10.89;100.00;99375.94;31488004;28;20041;-78
2024/01/02 17:45:46;;;;;;;5.40;3.80;;;;;;;11.24;100.00;99382.19;31505452;28;20052;-80
2024/01/02 18:00:54;;;;;;;6.27;3.07;;;;;;;11.10;100.00;99380.69;31474694;28;20507;-79
2024/01/02 18:16:32;;;;;;;7.00;2.57;;;;;;;11.28;100.00;99372.72;31452270;28;20049;-79
2024/01/02 18:32:06;;;;;;;13.03;6.77;;;;;;;10.89;100.00;99365.84;31474116;28;20077;-79
2024/01/02 18:47:17;;;;;;;6.17;3.37;;;;;;;10.88;100.00;99355.41;31462155;28;20053;-79
2024/01/02 19:02:19;;;;;;;7.27;3.27;;;;;;;10.52;100.00;99345.72;31460559;28;20055;-78
2024/01/02 19:17:22;;;;;;;6.27;3.10;;;;;;;10.37;100.00;99344.66;31472166;28;20060;-82
2024/01/02 19:32:24;;;;;;;11.53;3.20;;;;;;;10.39;100.00;99350.41;31475429;28;20045;-80
2024/01/02 19:47:26;;;;;;;8.23;3.33;;;;;;;10.46;100.00;99352.13;31485302;28;20569;-80
2024/01/02 20:02:38;;;;;;;7.57;3.20;;;;;;;10.61;100.00;99347.78;31502923;28;20049;-81
2024/01/02 20:17:41;;;;;;;7.33;3.43;;;;;;;10.38;100.00;99350.84;31546174;28;20052;-80
2024/01/02 20:33:04;;;;;;;9.87;3.10;;;;;;;10.11;100.00;99345.81;31493183;28;20051;-80
2024/01/02 20:48:06;;;;;;;4.40;2.70;;;;;;;10.28;100.00;99349.19;31475440;28;20048;-80
2024/01/02 21:03:09;;;;;;;17.30;7.17;;;;;;;9.86;100.00;99350.00;31492747;28;20044;-82
2024/01/02 21:18:37;;;;;;;5.33;2.93;;;;;;;10.02;100.00;99368.13;31528801;28;20049;-81
2024/01/02 21:33:40;;;;;;;7.00;3.13;;;;;;;9.38;100.00;99390.81;31506853;28;20048;-82
2024/01/02 21:48:46;;;;;;;6.27;3.50;;;;;;;8.78;100.00;99412.00;31476114;28;20044;-79
2024/01/02 22:03:53;;;;;;;;;;;;;;;7.30;100.00;99432.75;31501144;28;20092;-82
2024/01/02 22:19:30;;;;;;;6.20;3.83;;;;;;;7.40;100.00;99429.84;31496006;28;20009;-79
2024/01/02 22:34:38;;;;;;;6.63;3.97;;;;;;;8.52;100.00;99435.41;31485514;28;20052;-81
2024/01/02 22:49:41;;;;;;;5.90;3.63;;;;;;;8.24;100.00;99441.41;31484948;28;20102;-80
2024/01/02 23:04:43;;;;;;;7.97;4.07;;;;;;;8.21;100.00;99453.81;31484705;28;20056;-80
2024/01/02 23:19:45;;;;;;;8.97;4.27;;;;;;;8.10;100.00;99480.28;31487119;28;20056;-81
2024/01/02 23:34:50;;;;;;;8.67;4.43;;;;;;;7.95;100.00;99506.84;31488128;28;20052;-80
2024/01/02 23:49:54;;;;;;;6.20;3.83;;;;;;;7.38;100.00;99529.41;31515311;28;20045;-81
